Time,TemperatureF,DewpointF,PressureIn,WindDirection,WindDirectionDegrees,WindSpeedMPH,WindSpeedGustMPH,Humidity,HourlyPrecipIn,Conditions,Clouds,dailyrainin,SoftwareType,DateUTC
2013-03-26 00:00:00,58.0,46.7,30.06,NW,314,2.0,3.0,66,0.00,,,0.00,Wunderground v.1.15,2013-03-26 04:00:00,
2013-03-26 00:01:00,58.0,46.3,30.06,South,174,1.0,2.0,65,0.00,,,0.00,Wunderground v.1.15,2013-03-26 04:01:00,
2013-03-26 00:07:00,58.0,44.6,30.07,NE,46,1.0,4.0,61,0.00,,,0.00,Wunderground v.1.15,2013-03-26 04:07:00,
2013-03-26 00:08:00,58.0,44.6,30.07,NE,48,1.0,4.0,61,0.00,,,0.00,Wunderground v.1.15,2013-03-26 04:08:00,
2013-03-26 00:14:00,57.9,45.4,30.07,SSE,168,1.0,2.0,63,0.00,,,0.00,Wunderground v.1.15,2013-03-26 04:14:00,
2013-03-26 00:19:00,57.8,45.7,30.07,NE,56,0.0,4.0,64,0.00,,,0.00,Wunderground v.1.15,2013-03-26 04:19:00,
2013-03-26 00:25:00,57.7,45.6,30.07,NNE,20,1.0,1.0,64,0.00,,,0.00,Wunderground v.1.15,2013-03-26 04:25:00,
2013-03-26 00:30:00,57.6,45.9,30.07,North,8,0.0,1.0,65,0.00,,,0.00,Wunderground v.1.15,2013-03-26 04:30:00,
2013-03-26 00:35:00,57.5,45.4,30.07,NNE,13,2.0,2.0,64,0.00,,,0.00,Wunderground v.1.15,2013-03-26 04:35:00,
2013-03-26 00:41:00,57.6,45.5,30.07,WSW,251,2.0,5.0,64,0.00,,,0.00,Wunderground v.1.15,2013-03-26 04:41:00,
2013-03-26 00:47:00,57.8,44.9,30.07,NNW,340,0.0,5.0,62,0.00,,,0.00,Wunderground v.1.15,2013-03-26 04:47:00,
2013-03-26 00:53:00,57.9,45.0,30.07,SSE,149,1.0,2.0,62,0.00,,,0.00,Wunderground v.1.15,2013-03-26 04:53:00,
2013-03-26 00:58:00,58.0,45.5,30.07,SSW,200,1.0,5.0,63,0.00,,,0.00,Wunderground v.1.15,2013-03-26 04:58:00,
2013-03-26 01:03:00,58.2,45.7,30.07,ENE,57,3.0,3.0,63,0.00,,,0.00,Wunderground v.1.15,2013-03-26 05:03:00,
2013-03-26 01:09:00,58.3,44.5,30.07,NE,55,5.0,5.0,60,0.00,,,0.00,Wunderground v.1.15,2013-03-26 05:09:00,
2013-03-26 01:14:00,58.6,43.4,30.07,East,101,2.0,4.0,57,0.00,,,0.00,Wunderground v.1.15,2013-03-26 05:14:00,
2013-03-26 01:20:00,58.7,44.0,30.07,ENE,72,3.0,3.0,58,0.00,,,0.00,Wunderground v.1.15,2013-03-26 05:20:00,
2013-03-26 01:26:00,58.6,43.4,30.07,NNE,12,2.0,3.0,57,0.00,,,0.00,Wunderground v.1.15,2013-03-26 05:26:00,
2013-03-26 01:32:00,58.7,42.1,30.07,SSE,147,1.0,5.0,54,0.00,,,0.00,Wunderground v.1.15,2013-03-26 05:32:00,
2013-03-26 01:37:00,58.5,42.4,30.08,NE,39,3.0,5.0,55,0.00,,,0.00,Wunderground v.1.15,2013-03-26 05:37:00,
2013-03-26 01:43:00,58.5,42.4,30.07,ENE,58,3.0,3.0,55,0.00,,,0.00,Wunderground v.1.15,2013-03-26 05:43:00,
2013-03-26 01:49:00,58.5,42.8,30.07,SSW,205,2.0,8.0,56,0.00,,,0.00,Wunderground v.1.15,2013-03-26 05:49:00,
2013-03-26 01:55:00,58.5,42.4,30.08,NE,41,0.0,4.0,55,0.00,,,0.00,Wunderground v.1.15,2013-03-26 05:55:00,
2013-03-26 02:00:00,58.5,42.8,30.07,ENE,58,2.0,2.0,56,0.00,,,0.00,Wunderground v.1.15,2013-03-26 06:00:00,
2013-03-26 02:05:00,58.5,42.4,30.07,SW,229,1.0,9.0,55,0.00,,,0.00,Wunderground v.1.15,2013-03-26 06:05:00,
2013-03-26 02:10:00,58.5,41.9,30.07,ESE,115,2.0,3.0,54,0.00,,,0.00,Wunderground v.1.15,2013-03-26 06:10:00,
2013-03-26 02:15:00,58.7,41.1,30.07,NE,56,3.0,11.0,52,0.00,,,0.00,Wunderground v.1.15,2013-03-26 06:15:00,
2013-03-26 02:20:00,58.6,41.0,30.06,NE,39,1.0,4.0,52,0.00,,,0.00,Wunderground v.1.15,2013-03-26 06:20:00,
2013-03-26 02:25:00,58.5,40.9,30.06,NE,53,2.0,7.0,52,0.00,,,0.00,Wunderground v.1.15,2013-03-26 06:25:00,
2013-03-26 02:30:00,58.4,40.8,30.06,NE,52,1.0,2.0,52,0.00,,,0.00,Wunderground v.1.15,2013-03-26 06:30:00,
2013-03-26 02:35:00,58.5,39.4,30.07,ENE,60,4.0,8.0,49,0.00,,,0.00,Wunderground v.1.15,2013-03-26 06:35:00,
2013-03-26 02:40:00,58.6,38.4,30.06,NE,44,4.0,4.0,47,0.00,,,0.00,Wunderground v.1.15,2013-03-26 06:40:00,
2013-03-26 02:45:00,58.4,39.8,30.06,NNE,21,3.0,7.0,50,0.00,,,0.00,Wunderground v.1.15,2013-03-26 06:45:00,
2013-03-26 02:50:00,58.4,39.8,30.06,WNW,283,1.0,3.0,50,0.00,,,0.00,Wunderground v.1.15,2013-03-26 06:50:00,
2013-03-26 02:55:00,58.5,39.9,30.06,ENE,64,4.0,9.0,50,0.00,,,0.00,Wunderground v.1.15,2013-03-26 06:55:00,
2013-03-26 03:00:00,58.7,39.6,30.06,ENE,63,5.0,5.0,49,0.00,,,0.00,Wunderground v.1.15,2013-03-26 07:00:00,
2013-03-26 03:05:00,58.5,39.4,30.07,WSW,243,4.0,9.0,49,0.00,,,0.00,Wunderground v.1.15,2013-03-26 07:05:00,
2013-03-26 03:10:00,58.4,38.2,30.06,NE,37,2.0,4.0,47,0.00,,,0.00,Wunderground v.1.15,2013-03-26 07:10:00,
2013-03-26 03:15:00,58.4,38.2,30.06,ENE,76,1.0,15.0,47,0.00,,,0.00,Wunderground v.1.15,2013-03-26 07:15:00,
2013-03-26 03:20:00,58.2,41.1,30.06,South,172,2.0,4.0,53,0.00,,,0.00,Wunderground v.1.15,2013-03-26 07:20:00,
2013-03-26 03:25:00,58.0,42.4,30.06,NE,36,1.0,6.0,56,0.00,,,0.00,Wunderground v.1.15,2013-03-26 07:25:00,
2013-03-26 03:30:00,57.9,42.8,30.06,ENE,74,1.0,3.0,57,0.00,,,0.00,Wunderground v.1.15,2013-03-26 07:30:00,
2013-03-26 03:35:00,58.0,42.4,30.07,ENE,59,3.0,11.0,56,0.00,,,0.00,Wunderground v.1.15,2013-03-26 07:35:00,
2013-03-26 03:40:00,57.9,42.3,30.06,NE,41,7.0,12.0,56,0.00,,,0.00,Wunderground v.1.15,2013-03-26 07:40:00,
2013-03-26 03:45:00,57.9,41.8,30.06,SE,131,2.0,12.0,55,0.00,,,0.00,Wunderground v.1.15,2013-03-26 07:45:00,
2013-03-26 03:50:00,57.6,41.5,30.06,ENE,60,4.0,6.0,55,0.00,,,0.00,Wunderground v.1.15,2013-03-26 07:50:00,
2013-03-26 03:55:00,57.5,41.4,30.06,ENE,62,2.0,13.0,55,0.00,,,0.00,Wunderground v.1.15,2013-03-26 07:55:00,
2013-03-26 04:00:00,57.4,40.4,30.07,ENE,69,2.0,5.0,53,0.00,,,0.00,Wunderground v.1.15,2013-03-26 08:00:00,
2013-03-26 04:05:00,57.3,39.8,30.07,NNE,33,7.0,16.0,52,0.00,,,0.00,Wunderground v.1.15,2013-03-26 08:05:00,
2013-03-26 04:10:00,57.3,40.8,30.07,NE,49,4.0,6.0,54,0.00,,,0.00,Wunderground v.1.15,2013-03-26 08:10:00,
2013-03-26 04:15:00,57.2,40.2,30.07,NE,54,7.0,13.0,53,0.00,,,0.00,Wunderground v.1.15,2013-03-26 08:15:00,
2013-03-26 04:20:00,56.9,40.4,30.07,ESE,113,3.0,7.0,54,0.00,,,0.00,Wunderground v.1.15,2013-03-26 08:20:00,
2013-03-26 04:25:00,56.8,39.8,30.07,NE,41,5.0,11.0,53,0.00,,,0.00,Wunderground v.1.15,2013-03-26 08:25:00,
2013-03-26 04:30:00,56.6,40.1,30.07,ENE,61,7.0,7.0,54,0.00,,,0.00,Wunderground v.1.15,2013-03-26 08:30:00,
2013-03-26 04:35:00,56.3,40.3,30.08,ENE,60,2.0,8.0,55,0.00,,,0.00,Wunderground v.1.15,2013-03-26 08:35:00,
2013-03-26 04:40:00,56.1,40.1,30.08,North,7,1.0,3.0,55,0.00,,,0.00,Wunderground v.1.15,2013-03-26 08:40:00,
2013-03-26 04:45:00,56.1,39.7,30.08,NE,56,2.0,14.0,54,0.00,,,0.00,Wunderground v.1.15,2013-03-26 08:45:00,
2013-03-26 04:50:00,55.8,38.9,30.08,NE,49,8.0,8.0,53,0.00,,,0.00,Wunderground v.1.15,2013-03-26 08:50:00,
2013-03-26 04:55:00,55.8,38.9,30.08,ENE,70,4.0,12.0,53,0.00,,,0.00,Wunderground v.1.15,2013-03-26 08:55:00,
2013-03-26 05:00:00,55.7,38.8,30.08,NNE,30,9.0,9.0,53,0.00,,,0.00,Wunderground v.1.15,2013-03-26 09:00:00,
2013-03-26 05:05:00,55.8,38.9,30.08,ENE,57,4.0,9.0,53,0.00,,,0.00,Wunderground v.1.15,2013-03-26 09:05:00,
2013-03-26 05:10:00,55.6,39.2,30.08,NNE,26,5.0,6.0,54,0.00,,,0.00,Wunderground v.1.15,2013-03-26 09:10:00,
2013-03-26 05:15:00,55.5,40.0,30.08,NNE,32,4.0,14.0,56,0.00,,,0.00,Wunderground v.1.15,2013-03-26 09:15:00,
2013-03-26 05:20:00,55.1,40.1,30.09,North,11,5.0,5.0,57,0.00,,,0.00,Wunderground v.1.15,2013-03-26 09:20:00,
2013-03-26 05:25:00,54.7,39.3,30.08,NE,44,4.0,9.0,56,0.00,,,0.00,Wunderground v.1.15,2013-03-26 09:25:00,
2013-03-26 05:30:00,54.1,38.7,30.09,North,5,9.0,9.0,56,0.00,,,0.00,Wunderground v.1.15,2013-03-26 09:30:00,
2013-03-26 05:35:00,53.9,38.6,30.09,NNE,19,4.0,11.0,56,0.00,,,0.00,Wunderground v.1.15,2013-03-26 09:35:00,
2013-03-26 05:40:00,53.6,38.7,30.10,North,350,3.0,4.0,57,0.00,,,0.00,Wunderground v.1.15,2013-03-26 09:40:00,
2013-03-26 05:45:00,53.4,38.5,30.10,North,359,6.0,8.0,57,0.00,,,0.00,Wunderground v.1.15,2013-03-26 09:45:00,
2013-03-26 05:50:00,53.3,38.4,30.10,NE,39,3.0,4.0,57,0.00,,,0.00,Wunderground v.1.15,2013-03-26 09:50:00,
2013-03-26 05:55:00,53.1,38.7,30.10,NE,51,4.0,8.0,58,0.00,,,0.00,Wunderground v.1.15,2013-03-26 09:55:00,
2013-03-26 06:00:00,53.0,38.6,30.10,NE,54,4.0,9.0,58,0.00,,,0.00,Wunderground v.1.15,2013-03-26 10:00:00,
2013-03-26 06:05:00,52.8,38.9,30.10,NNE,25,3.0,9.0,59,0.00,,,0.00,Wunderground v.1.15,2013-03-26 10:05:00,
2013-03-26 06:10:00,52.7,39.2,30.10,NE,38,4.0,6.0,60,0.00,,,0.00,Wunderground v.1.15,2013-03-26 10:10:00,
2013-03-26 06:15:00,52.0,35.9,30.10,NE,35,1.0,6.0,54,0.00,,,0.00,Wunderground v.1.15,2013-03-26 10:15:00,
2013-03-26 06:20:00,51.2,34.6,30.10,NE,55,2.0,3.0,53,0.00,,,0.00,Wunderground v.1.15,2013-03-26 10:20:00,
2013-03-26 06:25:00,50.7,34.6,30.11,ENE,64,0.0,4.0,54,0.00,,,0.00,Wunderground v.1.15,2013-03-26 10:25:00,
2013-03-26 06:30:00,50.4,34.8,30.11,North,351,3.0,3.0,55,0.00,,,0.00,Wunderground v.1.15,2013-03-26 10:30:00,
2013-03-26 06:35:00,50.1,35.0,30.11,ENE,64,4.0,5.0,56,0.00,,,0.00,Wunderground v.1.15,2013-03-26 10:35:00,
2013-03-26 06:40:00,50.0,34.9,30.11,NNE,22,0.0,2.0,56,0.00,,,0.00,Wunderground v.1.15,2013-03-26 10:40:00,
2013-03-26 06:45:00,49.7,34.2,30.12,ENE,64,2.0,3.0,55,0.00,,,0.00,Wunderground v.1.15,2013-03-26 10:45:00,
2013-03-26 06:50:00,49.5,34.0,30.12,NE,48,3.0,3.0,55,0.00,,,0.00,Wunderground v.1.15,2013-03-26 10:50:00,
2013-03-26 06:55:00,49.3,33.8,30.12,NNE,25,2.0,3.0,55,0.00,,,0.00,Wunderground v.1.15,2013-03-26 10:55:00,
2013-03-26 07:00:00,49.1,33.6,30.12,North,1,3.0,3.0,55,0.00,,,0.00,Wunderground v.1.15,2013-03-26 11:00:00,
2013-03-26 07:05:00,48.9,34.3,30.13,NE,39,3.0,3.0,57,0.00,,,0.00,Wunderground v.1.15,2013-03-26 11:05:00,
2013-03-26 07:10:00,48.9,34.8,30.13,NNE,30,1.0,2.0,58,0.00,,,0.00,Wunderground v.1.15,2013-03-26 11:10:00,
2013-03-26 07:15:00,48.9,36.0,30.13,NNW,347,1.0,4.0,61,0.00,,,0.00,Wunderground v.1.15,2013-03-26 11:15:00,
2013-03-26 07:20:00,49.3,38.0,30.13,NE,34,6.0,6.0,65,0.00,,,0.00,Wunderground v.1.15,2013-03-26 11:20:00,
2013-03-26 07:25:00,50.3,39.4,30.13,NNE,18,3.0,8.0,66,0.00,,,0.00,Wunderground v.1.15,2013-03-26 11:25:00,
2013-03-26 07:30:00,50.8,39.5,30.13,North,6,3.0,4.0,65,0.00,,,0.00,Wunderground v.1.15,2013-03-26 11:30:00,
2013-03-26 07:35:00,51.0,39.6,30.13,NNE,31,2.0,6.0,65,0.00,,,0.00,Wunderground v.1.15,2013-03-26 11:35:00,
2013-03-26 07:40:00,51.3,39.9,30.14,ENE,61,3.0,5.0,65,0.00,,,0.00,Wunderground v.1.15,2013-03-26 11:40:00,
2013-03-26 07:45:00,51.5,40.1,30.14,NNE,32,2.0,12.0,65,0.00,,,0.00,Wunderground v.1.15,2013-03-26 11:45:00,
2013-03-26 07:50:00,51.6,40.2,30.14,NE,44,3.0,3.0,65,0.00,,,0.00,Wunderground v.1.15,2013-03-26 11:50:00,
2013-03-26 07:55:00,51.8,40.4,30.15,NE,44,0.0,7.0,65,0.00,,,0.00,Wunderground v.1.15,2013-03-26 11:55:00,
2013-03-26 08:00:00,52.1,39.9,30.15,NE,44,5.0,7.0,63,0.00,,,0.00,Wunderground v.1.15,2013-03-26 12:00:00,
2013-03-26 08:05:00,52.4,39.8,30.15,NNE,14,9.0,16.0,62,0.00,,,0.00,Wunderground v.1.15,2013-03-26 12:05:00,
2013-03-26 08:10:00,52.5,39.8,30.15,NNW,345,4.0,8.0,62,0.00,,,0.00,Wunderground v.1.15,2013-03-26 12:10:00,
2013-03-26 08:15:00,52.5,40.3,30.15,ENE,61,1.0,9.0,63,0.00,,,0.00,Wunderground v.1.15,2013-03-26 12:15:00,
2013-03-26 08:20:00,52.7,40.5,30.16,ENE,57,4.0,5.0,63,0.00,,,0.00,Wunderground v.1.15,2013-03-26 12:20:00,
2013-03-26 08:25:00,52.7,39.6,30.16,NE,48,1.0,7.0,61,0.00,,,0.00,Wunderground v.1.15,2013-03-26 12:25:00,
2013-03-26 08:30:00,52.8,39.7,30.16,East,80,4.0,5.0,61,0.00,,,0.00,Wunderground v.1.15,2013-03-26 12:30:00,
2013-03-26 08:35:00,53.0,40.7,30.16,ESE,110,2.0,10.0,63,0.00,,,0.00,Wunderground v.1.15,2013-03-26 12:35:00,
2013-03-26 08:40:00,53.0,40.7,30.16,NE,56,1.0,8.0,63,0.00,,,0.00,Wunderground v.1.15,2013-03-26 12:40:00,
2013-03-26 08:45:00,52.7,41.3,30.17,ENE,58,2.0,13.0,65,0.00,,,0.00,Wunderground v.1.15,2013-03-26 12:45:00,
2013-03-26 08:50:00,52.7,40.5,30.17,ESE,106,5.0,7.0,63,0.00,,,0.00,Wunderground v.1.15,2013-03-26 12:50:00,
2013-03-26 08:55:00,52.4,40.6,30.17,ENE,57,12.0,16.0,64,0.00,,,0.00,Wunderground v.1.15,2013-03-26 12:55:00,
2013-03-26 09:00:00,52.6,40.4,30.18,NE,53,5.0,7.0,63,0.00,,,0.00,Wunderground v.1.15,2013-03-26 13:00:00,
2013-03-26 09:05:00,52.6,40.8,30.18,NNE,20,3.0,11.0,64,0.00,,,0.00,Wunderground v.1.15,2013-03-26 13:05:00,
2013-03-26 09:10:00,52.4,40.2,30.18,SSW,204,6.0,13.0,63,0.00,,,0.00,Wunderground v.1.15,2013-03-26 13:10:00,
2013-03-26 09:15:00,52.2,40.8,30.18,NNE,23,15.0,15.0,65,0.00,,,0.00,Wunderground v.1.15,2013-03-26 13:15:00,
2013-03-26 09:20:00,52.7,40.9,30.18,ENE,75,6.0,8.0,64,0.00,,,0.00,Wunderground v.1.15,2013-03-26 13:20:00,
2013-03-26 09:25:00,53.1,40.8,30.18,NNE,32,5.0,11.0,63,0.00,,,0.00,Wunderground v.1.15,2013-03-26 13:25:00,
2013-03-26 09:30:00,53.7,41.4,30.18,NE,43,5.0,5.0,63,0.00,,,0.00,Wunderground v.1.15,2013-03-26 13:30:00,
2013-03-26 09:35:00,53.4,41.1,30.18,NE,52,3.0,15.0,63,0.00,,,0.00,Wunderground v.1.15,2013-03-26 13:35:00,
2013-03-26 09:40:00,53.5,40.8,30.18,East,84,3.0,7.0,62,0.00,,,0.00,Wunderground v.1.15,2013-03-26 13:40:00,
2013-03-26 09:45:00,54.1,40.5,30.19,North,352,7.0,14.0,60,0.00,,,0.00,Wunderground v.1.15,2013-03-26 13:45:00,
2013-03-26 09:50:00,54.2,40.6,30.19,NNW,340,3.0,8.0,60,0.00,,,0.00,Wunderground v.1.15,2013-03-26 13:50:00,
2013-03-26 09:55:00,54.7,40.2,30.19,NNE,13,6.0,17.0,58,0.00,,,0.00,Wunderground v.1.15,2013-03-26 13:55:00,
2013-03-26 10:00:00,54.7,39.8,30.19,ENE,78,4.0,4.0,57,0.00,,,0.00,Wunderground v.1.15,2013-03-26 14:00:00,
2013-03-26 10:05:00,55.1,39.7,30.19,North,352,5.0,17.0,56,0.00,,,0.00,Wunderground v.1.15,2013-03-26 14:05:00,
2013-03-26 10:10:00,55.3,40.3,30.19,NE,41,2.0,5.0,57,0.00,,,0.00,Wunderground v.1.15,2013-03-26 14:10:00,
2013-03-26 10:15:00,55.5,39.6,30.19,ENE,63,8.0,14.0,55,0.00,,,0.00,Wunderground v.1.15,2013-03-26 14:15:00,
2013-03-26 10:20:00,55.9,40.0,30.19,East,90,6.0,8.0,55,0.00,,,0.00,Wunderground v.1.15,2013-03-26 14:20:00,
2013-03-26 10:25:00,56.2,39.8,30.19,SSE,155,4.0,13.0,54,0.00,,,0.00,Wunderground v.1.15,2013-03-26 14:25:00,
2013-03-26 10:30:00,56.5,39.6,30.19,NNE,21,6.0,7.0,53,0.00,,,0.00,Wunderground v.1.15,2013-03-26 14:30:00,
2013-03-26 10:35:00,56.5,39.1,30.19,North,5,8.0,18.0,52,0.00,,,0.00,Wunderground v.1.15,2013-03-26 14:35:00,
2013-03-26 10:40:00,56.4,40.4,30.19,ESE,117,3.0,8.0,55,0.00,,,0.00,Wunderground v.1.15,2013-03-26 14:40:00,
2013-03-26 10:45:00,56.3,38.4,30.19,ENE,59,11.0,20.0,51,0.00,,,0.00,Wunderground v.1.15,2013-03-26 14:45:00,
2013-03-26 10:50:00,55.7,38.3,30.20,East,81,4.0,10.0,52,0.00,,,0.00,Wunderground v.1.15,2013-03-26 14:50:00,
2013-03-26 10:55:00,56.6,39.7,30.20,ENE,63,4.0,10.0,53,0.00,,,0.00,Wunderground v.1.15,2013-03-26 14:55:00,
2013-03-26 11:00:00,56.9,40.4,30.20,NE,39,4.0,7.0,54,0.00,,,0.00,Wunderground v.1.15,2013-03-26 15:00:00,
2013-03-26 11:05:00,56.7,39.3,30.20,East,86,2.0,12.0,52,0.00,,,0.00,Wunderground v.1.15,2013-03-26 15:05:00,
2013-03-26 11:10:00,56.9,39.9,30.20,NNW,332,2.0,5.0,53,0.00,,,0.00,Wunderground v.1.15,2013-03-26 15:10:00,
2013-03-26 11:15:00,57.2,37.7,30.20,NNW,334,1.0,10.0,48,0.00,,,0.00,Wunderground v.1.15,2013-03-26 15:15:00,
2013-03-26 11:20:00,56.8,36.2,30.20,NE,38,1.0,4.0,46,0.00,,,0.00,Wunderground v.1.15,2013-03-26 15:20:00,
2013-03-26 11:25:00,57.3,38.3,30.20,NE,51,8.0,11.0,49,0.00,,,0.00,Wunderground v.1.15,2013-03-26 15:25:00,
2013-03-26 11:30:00,56.6,38.2,30.21,NE,37,6.0,6.0,50,0.00,,,0.00,Wunderground v.1.15,2013-03-26 15:30:00,
2013-03-26 11:35:00,56.9,38.4,30.20,NW,316,1.0,10.0,50,0.00,,,0.00,Wunderground v.1.15,2013-03-26 15:35:00,
2013-03-26 11:40:00,57.4,38.4,30.21,NNE,31,2.0,7.0,49,0.00,,,0.00,Wunderground v.1.15,2013-03-26 15:40:00,
2013-03-26 11:45:00,58.1,41.0,30.21,SSE,166,1.0,8.0,53,0.00,,,0.00,Wunderground v.1.15,2013-03-26 15:45:00,
2013-03-26 11:50:00,58.7,39.6,30.21,NE,46,2.0,5.0,49,0.00,,,0.00,Wunderground v.1.15,2013-03-26 15:50:00,
2013-03-26 11:55:00,59.0,39.9,30.21,West,266,1.0,5.0,49,0.00,,,0.00,Wunderground v.1.15,2013-03-26 15:55:00,
2013-03-26 12:00:00,58.4,38.2,30.22,NE,35,7.0,7.0,47,0.00,,,0.00,Wunderground v.1.15,2013-03-26 16:00:00,
2013-03-26 12:05:00,58.0,39.5,30.21,East,89,2.0,12.0,50,0.00,,,0.00,Wunderground v.1.15,2013-03-26 16:05:00,
2013-03-26 12:10:00,58.5,39.4,30.21,ENE,60,4.0,7.0,49,0.00,,,0.00,Wunderground v.1.15,2013-03-26 16:10:00,
2013-03-26 12:15:00,58.8,39.7,30.22,ESE,112,3.0,13.0,49,0.00,,,0.00,Wunderground v.1.15,2013-03-26 16:15:00,
2013-03-26 12:20:00,57.8,37.1,30.21,SSW,205,4.0,15.0,46,0.00,,,0.00,Wunderground v.1.15,2013-03-26 16:20:00,
2013-03-26 12:25:00,57.1,37.6,30.21,SSE,158,2.0,16.0,48,0.00,,,0.00,Wunderground v.1.15,2013-03-26 16:25:00,
2013-03-26 12:30:00,56.9,37.4,30.21,ENE,68,5.0,14.0,48,0.00,,,0.00,Wunderground v.1.15,2013-03-26 16:30:00,
2013-03-26 12:35:00,57.0,40.0,30.21,SE,146,1.0,14.0,53,0.00,,,0.00,Wunderground v.1.15,2013-03-26 16:35:00,
2013-03-26 12:40:00,56.2,37.8,30.22,South,182,2.0,14.0,50,0.00,,,0.00,Wunderground v.1.15,2013-03-26 16:40:00,
2013-03-26 12:45:00,57.0,41.0,30.22,ENE,65,2.0,14.0,55,0.00,,,0.00,Wunderground v.1.15,2013-03-26 16:45:00,
2013-03-26 12:50:00,58.3,39.2,30.22,NW,321,2.0,6.0,49,0.00,,,0.00,Wunderground v.1.15,2013-03-26 16:50:00,
2013-03-26 12:55:00,58.4,38.2,30.22,West,268,2.0,8.0,47,0.00,,,0.00,Wunderground v.1.15,2013-03-26 16:55:00,
2013-03-26 13:00:00,57.7,37.6,30.22,SSE,161,6.0,12.0,47,0.00,,,0.00,Wunderground v.1.15,2013-03-26 17:00:00,
2013-03-26 13:05:00,57.9,37.2,30.22,ENE,63,3.0,12.0,46,0.00,,,0.00,Wunderground v.1.15,2013-03-26 17:05:00,
2013-03-26 13:10:00,57.4,40.4,30.22,North,355,5.0,5.0,53,0.00,,,0.00,Wunderground v.1.15,2013-03-26 17:10:00,
2013-03-26 13:15:00,58.0,38.4,30.22,ESE,112,5.0,13.0,48,0.00,,,0.00,Wunderground v.1.15,2013-03-26 17:15:00,
2013-03-26 13:20:00,58.7,40.6,30.22,ESE,122,1.0,7.0,51,0.00,,,0.00,Wunderground v.1.15,2013-03-26 17:20:00,
2013-03-26 13:25:00,58.8,39.1,30.22,North,11,1.0,12.0,48,0.00,,,0.00,Wunderground v.1.15,2013-03-26 17:25:00,
2013-03-26 13:30:00,58.0,40.0,30.22,ESE,119,4.0,8.0,51,0.00,,,0.00,Wunderground v.1.15,2013-03-26 17:30:00,
2013-03-26 13:35:00,57.8,37.7,30.22,NE,55,4.0,15.0,47,0.00,,,0.00,Wunderground v.1.15,2013-03-26 17:35:00,
2013-03-26 13:40:00,57.8,40.3,30.21,ESE,117,2.0,4.0,52,0.00,,,0.00,Wunderground v.1.15,2013-03-26 17:40:00,
2013-03-26 13:45:00,57.2,38.2,30.22,ENE,70,1.0,13.0,49,0.00,,,0.00,Wunderground v.1.15,2013-03-26 17:45:00,
2013-03-26 13:50:00,57.4,39.9,30.22,NNE,25,4.0,7.0,52,0.00,,,0.00,Wunderground v.1.15,2013-03-26 17:50:00,
2013-03-26 13:55:00,58.4,38.8,30.22,SE,124,3.0,9.0,48,0.00,,,0.00,Wunderground v.1.15,2013-03-26 17:55:00,
2013-03-26 14:00:00,59.0,39.9,30.22,SSE,154,1.0,4.0,49,0.00,,,0.00,Wunderground v.1.15,2013-03-26 18:00:00,
2013-03-26 14:05:00,59.1,41.0,30.22,SE,143,1.0,10.0,51,0.00,,,0.00,Wunderground v.1.15,2013-03-26 18:05:00,
2013-03-26 14:10:00,58.3,37.6,30.21,ENE,77,5.0,14.0,46,0.00,,,0.00,Wunderground v.1.15,2013-03-26 18:10:00,
2013-03-26 14:15:00,58.0,39.5,30.21,East,89,2.0,14.0,50,0.00,,,0.00,Wunderground v.1.15,2013-03-26 18:15:00,
2013-03-26 14:20:00,58.2,39.6,30.22,ENE,69,3.0,4.0,50,0.00,,,0.00,Wunderground v.1.15,2013-03-26 18:20:00,
2013-03-26 14:26:00,57.7,39.7,30.21,East,81,1.0,19.0,51,0.00,,,0.00,Wunderground v.1.15,2013-03-26 18:26:00,
2013-03-26 14:31:00,58.1,40.1,30.22,SE,126,1.0,4.0,51,0.00,,,0.00,Wunderground v.1.15,2013-03-26 18:31:00,
2013-03-26 14:36:00,58.9,40.3,30.21,SSW,194,2.0,10.0,50,0.00,,,0.00,Wunderground v.1.15,2013-03-26 18:36:00,
2013-03-26 14:41:00,59.5,41.9,30.22,ENE,71,5.0,7.0,52,0.00,,,0.00,Wunderground v.1.15,2013-03-26 18:41:00,
2013-03-26 14:46:00,59.7,41.0,30.21,ENE,70,2.0,16.0,50,0.00,,,0.00,Wunderground v.1.15,2013-03-26 18:46:00,
2013-03-26 14:51:00,59.1,38.3,30.21,NE,39,3.0,11.0,46,0.00,,,0.00,Wunderground v.1.15,2013-03-26 18:51:00,
2013-03-26 14:56:00,57.9,38.8,30.21,SW,222,2.0,14.0,49,0.00,,,0.00,Wunderground v.1.15,2013-03-26 18:56:00,
2013-03-26 15:01:00,57.8,39.8,30.21,SSE,165,1.0,4.0,51,0.00,,,0.00,Wunderground v.1.15,2013-03-26 19:01:00,
2013-03-26 15:06:00,58.8,41.7,30.21,East,98,3.0,10.0,53,0.00,,,0.00,Wunderground v.1.15,2013-03-26 19:06:00,
2013-03-26 15:11:00,59.1,39.9,30.21,NNE,18,1.0,4.0,49,0.00,,,0.00,Wunderground v.1.15,2013-03-26 19:11:00,
2013-03-26 15:17:00,58.8,40.7,30.21,SSE,156,0.0,5.0,51,0.00,,,0.00,Wunderground v.1.15,2013-03-26 19:17:00,
2013-03-26 15:22:00,58.9,40.8,30.20,ENE,66,4.0,12.0,51,0.00,,,0.00,Wunderground v.1.15,2013-03-26 19:22:00,
2013-03-26 15:27:00,59.3,41.2,30.20,South,171,0.0,12.0,51,0.00,,,0.00,Wunderground v.1.15,2013-03-26 19:27:00,
2013-03-26 15:32:00,59.5,41.3,30.20,NNW,328,3.0,4.0,51,0.00,,,0.00,Wunderground v.1.15,2013-03-26 19:32:00,
2013-03-26 15:37:00,59.9,41.7,30.20,East,81,3.0,4.0,51,0.00,,,0.00,Wunderground v.1.15,2013-03-26 19:37:00,
2013-03-26 15:42:00,58.8,40.2,30.20,NNE,32,8.0,8.0,50,0.00,,,0.00,Wunderground v.1.15,2013-03-26 19:42:00,
2013-03-26 15:47:00,57.6,39.1,30.19,NE,46,4.0,8.0,50,0.00,,,0.00,Wunderground v.1.15,2013-03-26 19:47:00,
2013-03-26 15:52:00,57.0,39.0,30.20,ESE,115,1.0,6.0,51,0.00,,,0.00,Wunderground v.1.15,2013-03-26 19:52:00,
2013-03-26 15:57:00,58.1,41.0,30.19,NW,318,1.0,6.0,53,0.00,,,0.00,Wunderground v.1.15,2013-03-26 19:57:00,
2013-03-26 16:02:00,58.8,39.7,30.20,SSE,149,1.0,3.0,49,0.00,,,0.00,Wunderground v.1.15,2013-03-26 20:02:00,
2013-03-26 16:07:00,57.7,39.7,30.20,ESE,116,1.0,7.0,51,0.00,,,0.00,Wunderground v.1.15,2013-03-26 20:07:00,
2013-03-26 16:12:00,57.8,40.3,30.19,NE,51,3.0,3.0,52,0.00,,,0.00,Wunderground v.1.15,2013-03-26 20:12:00,
2013-03-26 16:17:00,57.1,39.1,30.19,NE,47,5.0,6.0,51,0.00,,,0.00,Wunderground v.1.15,2013-03-26 20:17:00,
2013-03-26 16:22:00,57.1,38.1,30.19,East,90,7.0,9.0,49,0.00,,,0.00,Wunderground v.1.15,2013-03-26 20:22:00,
2013-03-26 16:27:00,56.1,37.2,30.20,SSE,152,1.0,9.0,49,0.00,,,0.00,Wunderground v.1.15,2013-03-26 20:27:00,
2013-03-26 16:32:00,57.6,40.1,30.19,NE,43,7.0,8.0,52,0.00,,,0.00,Wunderground v.1.15,2013-03-26 20:32:00,
2013-03-26 16:37:00,56.8,38.9,30.19,SSE,157,2.0,10.0,51,0.00,,,0.00,Wunderground v.1.15,2013-03-26 20:37:00,
2013-03-26 16:42:00,56.5,38.6,30.19,SSE,157,2.0,5.0,51,0.00,,,0.00,Wunderground v.1.15,2013-03-26 20:42:00,
2013-03-26 16:47:00,56.9,39.4,30.19,SSE,166,1.0,7.0,52,0.00,,,0.00,Wunderground v.1.15,2013-03-26 20:47:00,
2013-03-26 16:52:00,57.3,40.3,30.19,NE,41,10.0,10.0,53,0.00,,,0.00,Wunderground v.1.15,2013-03-26 20:52:00,
2013-03-26 16:57:00,57.8,39.3,30.19,South,174,1.0,11.0,50,0.00,,,0.00,Wunderground v.1.15,2013-03-26 20:57:00,
2013-03-26 17:02:00,57.9,37.8,30.18,NE,56,2.0,7.0,47,0.00,,,0.00,Wunderground v.1.15,2013-03-26 21:02:00,
2013-03-26 17:07:00,56.9,37.9,30.18,NE,34,4.0,7.0,49,0.00,,,0.00,Wunderground v.1.15,2013-03-26 21:07:00,
2013-03-26 17:12:00,56.9,37.4,30.19,WNW,290,3.0,14.0,48,0.00,,,0.00,Wunderground v.1.15,2013-03-26 21:12:00,
2013-03-26 17:17:00,56.9,38.9,30.18,WSW,239,1.0,14.0,51,0.00,,,0.00,Wunderground v.1.15,2013-03-26 21:17:00,
2013-03-26 17:22:00,56.8,38.3,30.18,WSW,241,2.0,6.0,50,0.00,,,0.00,Wunderground v.1.15,2013-03-26 21:22:00,
2013-03-26 17:27:00,56.4,37.5,30.18,ESE,110,4.0,8.0,49,0.00,,,0.00,Wunderground v.1.15,2013-03-26 21:27:00,
2013-03-26 17:33:00,57.0,37.5,30.18,NE,47,9.0,9.0,48,0.00,,,0.00,Wunderground v.1.15,2013-03-26 21:33:00,
2013-03-26 17:38:00,56.5,37.0,30.18,SSE,150,1.0,9.0,48,0.00,,,0.00,Wunderground v.1.15,2013-03-26 21:38:00,
2013-03-26 17:43:00,57.1,38.1,30.18,East,92,1.0,2.0,49,0.00,,,0.00,Wunderground v.1.15,2013-03-26 21:43:00,
2013-03-26 17:48:00,56.4,37.5,30.18,NE,43,2.0,10.0,49,0.00,,,0.00,Wunderground v.1.15,2013-03-26 21:48:00,
2013-03-26 17:53:00,56.0,37.1,30.18,East,98,0.0,10.0,49,0.00,,,0.00,Wunderground v.1.15,2013-03-26 21:53:00,
2013-03-26 17:58:00,56.1,37.7,30.18,East,85,1.0,10.0,50,0.00,,,0.00,Wunderground v.1.15,2013-03-26 21:58:00,
2013-03-26 18:03:00,55.8,37.9,30.19,SSE,159,1.0,2.0,51,0.00,,,0.00,Wunderground v.1.15,2013-03-26 22:03:00,
2013-03-26 18:08:00,55.1,36.3,30.19,ENE,68,1.0,9.0,49,0.00,,,0.00,Wunderground v.1.15,2013-03-26 22:08:00,
2013-03-26 18:13:00,54.7,37.4,30.19,NE,35,1.0,4.0,52,0.00,,,0.00,Wunderground v.1.15,2013-03-26 22:13:00,
2013-03-26 18:18:00,54.4,37.6,30.19,NNE,16,1.0,5.0,53,0.00,,,0.00,Wunderground v.1.15,2013-03-26 22:18:00,
2013-03-26 18:23:00,53.9,37.6,30.19,NE,51,2.0,5.0,54,0.00,,,0.00,Wunderground v.1.15,2013-03-26 22:23:00,
2013-03-26 18:28:00,53.8,37.5,30.19,SSW,207,0.0,5.0,54,0.00,,,0.00,Wunderground v.1.15,2013-03-26 22:28:00,
2013-03-26 18:33:00,53.7,37.4,30.19,WSW,255,0.0,4.0,54,0.00,,,0.00,Wunderground v.1.15,2013-03-26 22:33:00,
2013-03-26 18:38:00,53.5,36.3,30.19,NE,49,2.0,4.0,52,0.00,,,0.00,Wunderground v.1.15,2013-03-26 22:38:00,
2013-03-26 18:43:00,53.2,37.4,30.19,SSE,150,1.0,3.0,55,0.00,,,0.00,Wunderground v.1.15,2013-03-26 22:43:00,
2013-03-26 18:48:00,52.9,37.2,30.19,NE,41,3.0,9.0,55,0.00,,,0.00,Wunderground v.1.15,2013-03-26 22:48:00,
2013-03-26 18:53:00,52.6,37.3,30.19,WSW,246,2.0,6.0,56,0.00,,,0.00,Wunderground v.1.15,2013-03-26 22:53:00,
2013-03-26 18:58:00,52.4,37.6,30.19,NE,55,2.0,6.0,57,0.00,,,0.00,Wunderground v.1.15,2013-03-26 22:58:00,
2013-03-26 19:03:00,52.2,37.0,30.19,NE,47,11.0,11.0,56,0.00,,,0.00,Wunderground v.1.15,2013-03-26 23:03:00,
2013-03-26 19:08:00,51.9,37.1,30.19,NE,50,1.0,11.0,57,0.00,,,0.00,Wunderground v.1.15,2013-03-26 23:08:00,
2013-03-26 19:13:00,51.6,36.9,30.20,SE,127,1.0,5.0,57,0.00,,,0.00,Wunderground v.1.15,2013-03-26 23:13:00,
2013-03-26 19:18:00,51.4,37.1,30.20,South,186,1.0,5.0,58,0.00,,,0.00,Wunderground v.1.15,2013-03-26 23:18:00,
2013-03-26 19:23:00,51.2,37.8,30.20,SW,225,1.0,2.0,60,0.00,,,0.00,Wunderground v.1.15,2013-03-26 23:23:00,
2013-03-26 19:28:00,51.0,37.6,30.20,NNE,27,1.0,3.0,60,0.00,,,0.00,Wunderground v.1.15,2013-03-26 23:28:00,
2013-03-26 19:33:00,50.9,37.5,30.20,South,186,1.0,3.0,60,0.00,,,0.00,Wunderground v.1.15,2013-03-26 23:33:00,
2013-03-26 19:38:00,50.7,37.7,30.20,SE,127,1.0,3.0,61,0.00,,,0.00,Wunderground v.1.15,2013-03-26 23:38:00,
2013-03-26 19:43:00,50.5,37.5,30.20,SE,143,0.0,2.0,61,0.00,,,0.00,Wunderground v.1.15,2013-03-26 23:43:00,
2013-03-26 19:48:00,50.3,37.8,30.21,NE,52,1.0,3.0,62,0.00,,,0.00,Wunderground v.1.15,2013-03-26 23:48:00,
2013-03-26 19:53:00,50.3,38.2,30.21,North,5,1.0,4.0,63,0.00,,,0.00,Wunderground v.1.15,2013-03-26 23:53:00,
2013-03-26 19:58:00,50.4,38.3,30.21,ENE,64,0.0,4.0,63,0.00,,,0.00,Wunderground v.1.15,2013-03-26 23:58:00,
2013-03-26 20:03:00,50.3,38.2,30.21,NNE,30,3.0,6.0,63,0.00,,,0.00,Wunderground v.1.15,2013-03-27 00:03:00,
2013-03-26 20:08:00,50.3,38.6,30.20,NE,46,2.0,7.0,64,0.00,,,0.00,Wunderground v.1.15,2013-03-27 00:08:00,
2013-03-26 20:13:00,50.3,38.2,30.21,ESE,110,0.0,4.0,63,0.00,,,0.00,Wunderground v.1.15,2013-03-27 00:13:00,
2013-03-26 20:18:00,50.1,38.0,30.21,NE,51,2.0,4.0,63,0.00,,,0.00,Wunderground v.1.15,2013-03-27 00:18:00,
2013-03-26 20:23:00,50.2,37.3,30.21,NNE,31,3.0,9.0,61,0.00,,,0.00,Wunderground v.1.15,2013-03-27 00:23:00,
2013-03-26 20:28:00,50.1,37.2,30.21,NE,47,2.0,9.0,61,0.00,,,0.00,Wunderground v.1.15,2013-03-27 00:28:00,
2013-03-26 20:33:00,50.0,37.5,30.22,NE,47,1.0,5.0,62,0.00,,,0.00,Wunderground v.1.15,2013-03-27 00:33:00,
2013-03-26 20:38:00,49.8,36.9,30.22,ENE,64,0.0,5.0,61,0.00,,,0.00,Wunderground v.1.15,2013-03-27 00:38:00,
2013-03-26 20:43:00,49.8,36.9,30.22,ENE,57,2.0,5.0,61,0.00,,,0.00,Wunderground v.1.15,2013-03-27 00:43:00,
2013-03-26 20:48:00,49.8,36.9,30.22,SE,138,0.0,5.0,61,0.00,,,0.00,Wunderground v.1.15,2013-03-27 00:48:00,
2013-03-26 20:54:00,49.7,37.2,30.23,SE,126,2.0,5.0,62,0.00,,,0.00,Wunderground v.1.15,2013-03-27 00:54:00,
2013-03-26 20:59:00,49.8,36.9,30.23,ENE,67,2.0,7.0,61,0.00,,,0.00,Wunderground v.1.15,2013-03-27 00:59:00,
2013-03-26 21:03:00,49.8,36.5,30.23,NE,35,0.0,4.0,60,0.00,,,0.00,Wunderground v.1.15,2013-03-27 01:03:00,
2013-03-26 21:08:00,49.7,36.4,30.23,NE,47,3.0,6.0,60,0.00,,,0.00,Wunderground v.1.15,2013-03-27 01:08:00,
2013-03-26 21:13:00,49.7,36.8,30.23,ENE,69,2.0,4.0,61,0.00,,,0.00,Wunderground v.1.15,2013-03-27 01:13:00,
2013-03-26 21:18:00,49.7,36.4,30.23,East,94,1.0,8.0,60,0.00,,,0.00,Wunderground v.1.15,2013-03-27 01:18:00,
2013-03-26 21:23:00,49.6,35.8,30.24,WNW,285,1.0,9.0,59,0.00,,,0.00,Wunderground v.1.15,2013-03-27 01:23:00,
2013-03-26 21:28:00,49.6,35.8,30.24,East,94,2.0,9.0,59,0.00,,,0.00,Wunderground v.1.15,2013-03-27 01:28:00,
2013-03-26 21:33:00,49.6,36.3,30.24,NE,44,3.0,3.0,60,0.00,,,0.00,Wunderground v.1.15,2013-03-27 01:33:00,
2013-03-26 21:38:00,49.8,36.5,30.24,NE,51,1.0,6.0,60,0.00,,,0.00,Wunderground v.1.15,2013-03-27 01:38:00,
2013-03-26 21:43:00,49.8,36.0,30.25,ESE,105,1.0,4.0,59,0.00,,,0.00,Wunderground v.1.15,2013-03-27 01:43:00,
2013-03-26 21:48:00,49.7,36.4,30.25,ENE,60,3.0,5.0,60,0.00,,,0.00,Wunderground v.1.15,2013-03-27 01:48:00,
2013-03-26 21:53:00,49.7,36.4,30.25,East,87,1.0,6.0,60,0.00,,,0.00,Wunderground v.1.15,2013-03-27 01:53:00,
2013-03-26 21:59:00,49.7,36.4,30.25,East,80,0.0,6.0,60,0.00,,,0.00,Wunderground v.1.15,2013-03-27 01:59:00,
2013-03-26 22:04:00,49.6,36.7,30.25,NNE,24,3.0,3.0,61,0.00,,,0.00,Wunderground v.1.15,2013-03-27 02:04:00,
2013-03-26 22:09:00,49.6,36.7,30.25,ENE,66,1.0,4.0,61,0.00,,,0.00,Wunderground v.1.15,2013-03-27 02:09:00,
2013-03-26 22:14:00,49.7,36.8,30.25,ENE,75,2.0,7.0,61,0.00,,,0.00,Wunderground v.1.15,2013-03-27 02:14:00,
2013-03-26 22:19:00,49.6,36.7,30.25,NE,39,2.0,7.0,61,0.00,,,0.00,Wunderground v.1.15,2013-03-27 02:19:00,
2013-03-26 22:24:00,49.6,36.7,30.25,NE,45,0.0,3.0,61,0.00,,,0.00,Wunderground v.1.15,2013-03-27 02:24:00,
2013-03-26 22:29:00,49.6,36.7,30.25,NE,49,0.0,4.0,61,0.00,,,0.00,Wunderground v.1.15,2013-03-27 02:29:00,
2013-03-26 22:34:00,49.4,36.9,30.25,NE,36,2.0,3.0,62,0.00,,,0.00,Wunderground v.1.15,2013-03-27 02:34:00,
2013-03-26 22:39:00,49.4,36.5,30.26,SE,130,1.0,3.0,61,0.00,,,0.00,Wunderground v.1.15,2013-03-27 02:39:00,
2013-03-26 22:44:00,49.7,36.4,30.26,SW,235,2.0,5.0,60,0.00,,,0.00,Wunderground v.1.15,2013-03-27 02:44:00,
2013-03-26 22:49:00,49.9,36.6,30.26,East,83,0.0,6.0,60,0.00,,,0.00,Wunderground v.1.15,2013-03-27 02:49:00,
2013-03-26 22:54:00,49.8,36.5,30.26,NE,43,3.0,4.0,60,0.00,,,0.00,Wunderground v.1.15,2013-03-27 02:54:00,
2013-03-26 22:59:00,50.1,36.7,30.26,North,10,0.0,9.0,60,0.00,,,0.00,Wunderground v.1.15,2013-03-27 02:59:00,
2013-03-26 23:04:00,50.0,37.1,30.26,ENE,75,0.0,3.0,61,0.00,,,0.00,Wunderground v.1.15,2013-03-27 03:04:00,
2013-03-26 23:09:00,50.1,36.7,30.26,NE,43,1.0,5.0,60,0.00,,,0.00,Wunderground v.1.15,2013-03-27 03:09:00,
2013-03-26 23:14:00,50.1,36.7,30.27,ENE,58,1.0,2.0,60,0.00,,,0.00,Wunderground v.1.15,2013-03-27 03:14:00,
2013-03-26 23:19:00,49.8,36.9,30.27,NNE,20,0.0,2.0,61,0.00,,,0.00,Wunderground v.1.15,2013-03-27 03:19:00,
2013-03-26 23:24:00,49.9,37.0,30.27,NE,54,0.0,5.0,61,0.00,,,0.00,Wunderground v.1.15,2013-03-27 03:24:00,
2013-03-26 23:29:00,50.0,36.7,30.27,NE,34,3.0,5.0,60,0.00,,,0.00,Wunderground v.1.15,2013-03-27 03:29:00,
2013-03-26 23:34:00,50.2,36.8,30.27,ENE,58,2.0,5.0,60,0.00,,,0.00,Wunderground v.1.15,2013-03-27 03:34:00,
2013-03-26 23:39:00,50.5,36.7,30.26,ENE,57,0.0,5.0,59,0.00,,,0.00,Wunderground v.1.15,2013-03-27 03:39:00,
2013-03-26 23:44:00,50.3,36.5,30.26,NNE,15,0.0,3.0,59,0.00,,,0.00,Wunderground v.1.15,2013-03-27 03:44:00,
2013-03-26 23:49:00,50.3,36.5,30.26,NE,55,0.0,8.0,59,0.00,,,0.00,Wunderground v.1.15,2013-03-27 03:49:00,
2013-03-26 23:54:00,50.2,36.8,30.26,NNE,21,0.0,6.0,60,0.00,,,0.00,Wunderground v.1.15,2013-03-27 03:54:00,
2013-03-26 23:59:00,50.1,36.7,30.26,NE,56,2.0,6.0,60,0.00,,,0.00,Wunderground v.1.15,2013-03-27 03:59:00,